Arkdale, Wisconsin
Current Conditions -  °F | °C
As of 3:58 AM on Sunday 23 Nov 2014 (Local Time) from KVOK Reporting Station
Overcast Overcast  
Wind Chill: 50°   Ceiling: 800
Heat Index: 50°   Visibility: 10mi
Dew Point: 50°   Wind: 6mph
Humidity: 100%   Direction: NA
Pressure: 29.6"   Gusts: NA
Location:  44.03°N, 89.89°W
Report Text: KVOK 230958Z AUTO VRB05KT 10SM BKN008 OVC013 10/10 A2960 RMK AO2 SLP031
Loading
Personal Weather Stations






























Interactive Weather Map New forecast layout! Learn more

10-Day Weather Forecast

Advertisements
Track Severe Weather on mobile